Time;durP1;ratioP1;P1;durP2;ratioP2;P2;SDS_P1;SDS_P2;PMS_P1;PMS_P2;Temp;Humidity;BMP_temperature;BMP_pressure;BME280_temperature;BME280_humidity;BME280_pressure;Samples;Min_cycle;Max_cycle;Signal;HPM_P1;HPM_P2
2022/09/23 00:02:00;;;;;;;1999.90;999.90;;;9.90;99.90;;;;;;6635014;89;20784;-78
2022/09/23 00:12:01;;;;;;;1999.90;999.90;;;10.00;99.90;;;;;;6649978;88;20186;-78
2022/09/23 00:22:02;;;;;;;1999.90;999.90;;;9.80;99.90;;;;;;6649135;88;20667;-77
2022/09/23 00:32:03;;;;;;;1999.90;999.90;;;9.80;99.90;;;;;;6633493;89;20921;-77
2022/09/23 00:42:03;;;;;;;1999.90;999.90;;;9.70;99.90;;;;;;6632210;88;20527;-77
2022/09/23 00:52:14;;;;;;;1999.90;999.90;;;9.60;99.90;;;;;;6632234;89;20207;-77
2022/09/23 01:02:16;;;;;;;1999.90;999.90;;;9.70;99.90;;;;;;6632876;88;20180;-77
2022/09/23 01:12:55;;;;;;;1999.90;999.90;;;9.70;99.90;;;;;;6637364;88;20235;-78
2022/09/23 01:23:34;;;;;;;1999.90;999.90;;;9.70;99.90;;;;;;6634809;89;20221;-77
2022/09/23 01:34:02;;;;;;;1999.90;999.90;;;9.80;99.90;;;;;;6632442;88;20186;-77
2022/09/23 01:44:08;;;;;;;1999.90;999.90;;;9.80;99.90;;;;;;6638386;88;20210;-78
2022/09/23 01:54:23;;;;;;;1999.90;999.90;;;9.80;99.90;;;;;;6655341;88;20230;-78
2022/09/23 02:04:38;;;;;;;1999.90;999.90;;;9.70;99.90;;;;;;6636073;88;20229;-78
2022/09/23 02:14:52;;;;;;;1999.90;999.90;;;9.70;99.90;;;;;;6649480;88;20239;-77
2022/09/23 02:24:56;;;;;;;1999.90;999.90;;;9.80;99.90;;;;;;6634572;88;20177;-78
2022/09/23 02:35:09;;;;;;;1999.90;999.90;;;9.50;99.90;;;;;;6637226;88;20201;-77
2022/09/23 02:45:09;;;;;;;1999.90;999.90;;;9.50;99.90;;;;;;6649901;88;20228;-77
2022/09/23 02:55:14;;;;;;;1999.90;999.90;;;9.40;99.90;;;;;;6653304;89;20350;-78
2022/09/23 03:05:23;;;;;;;1999.90;999.90;;;9.30;99.90;;;;;;6653720;89;20210;-78
2022/09/23 03:15:36;;;;;;;1999.90;999.90;;;9.40;99.90;;;;;;6666688;88;20199;-78
2022/09/23 03:25:40;;;;;;;1999.90;999.90;;;9.10;99.90;;;;;;6653992;89;20214;-78
2022/09/23 03:46:17;;;;;;;1999.90;999.90;;;8.90;99.90;;;;;;6634627;89;20677;-77
2022/09/23 03:56:18;;;;;;;1999.90;999.90;;;8.90;99.90;;;;;;6635289;89;20287;-78
2022/09/23 04:06:19;;;;;;;1999.90;999.90;;;8.90;99.90;;;;;;6634732;89;20208;-78
2022/09/23 04:16:20;;;;;;;1999.90;999.90;;;8.80;99.90;;;;;;6646855;88;20244;-78
2022/09/23 04:26:21;;;;;;;1999.90;999.90;;;8.80;99.90;;;;;;6653975;89;20710;-78
2022/09/23 04:36:21;;;;;;;1999.90;999.90;;;8.60;99.90;;;;;;6652923;89;20195;-78
2022/09/23 04:46:23;;;;;;;1999.90;999.90;;;8.60;99.90;;;;;;6650034;89;20346;-78
2022/09/23 04:56:26;;;;;;;1999.90;999.90;;;8.60;99.90;;;;;;6650366;89;20266;-78
2022/09/23 05:06:33;;;;;;;1999.90;999.90;;;8.60;99.90;;;;;;6650801;88;20192;-79
2022/09/23 05:16:34;;;;;;;1999.90;999.90;;;8.50;99.90;;;;;;6670676;88;20216;-79
2022/09/23 05:26:35;;;;;;;1999.90;999.90;;;8.50;99.90;;;;;;6658344;89;20267;-80
2022/09/23 05:36:36;;;;;;;1999.90;999.90;;;8.50;99.90;;;;;;6662168;88;20226;-77
2022/09/23 05:46:36;;;;;;;1999.90;999.90;;;8.50;99.90;;;;;;6639112;89;21085;-78
2022/09/23 05:56:37;;;;;;;1999.90;999.90;;;8.40;99.90;;;;;;6637953;89;20196;-79
2022/09/23 06:06:40;;;;;;;1999.90;999.90;;;8.40;99.90;;;;;;6639051;88;20197;-78
2022/09/23 06:16:41;;;;;;;1999.90;999.90;;;8.60;99.90;;;;;;6640023;89;20233;-78
2022/09/23 06:26:42;;;;;;;1999.90;999.90;;;8.70;99.90;;;;;;6660288;88;21091;-78
2022/09/23 06:36:43;;;;;;;1999.90;999.90;;;9.00;99.90;;;;;;6665677;88;20536;-78
2022/09/23 06:46:43;;;;;;;1999.90;999.90;;;9.40;99.90;;;;;;6641314;88;20617;-78
2022/09/23 06:56:46;;;;;;;1999.90;999.90;;;9.80;99.90;;;;;;6653536;88;20189;-78
2022/09/23 07:06:46;;;;;;;1999.90;999.90;;;10.20;99.90;;;;;;6638703;88;20602;-79
2022/09/23 07:16:48;;;;;;;1999.90;999.90;;;10.40;99.90;;;;;;6661162;89;20214;-78
2022/09/23 07:26:48;;;;;;;1999.90;999.90;;;10.90;99.90;;;;;;6647270;89;20181;-78
2022/09/23 07:36:49;;;;;;;1999.90;999.90;;;11.50;99.90;;;;;;6647843;88;20234;-78
2022/09/23 07:46:49;;;;;;;1999.90;999.90;;;12.10;99.90;;;;;;6658244;89;20575;-79
2022/09/23 07:56:50;;;;;;;1999.90;999.90;;;12.40;99.90;;;;;;6657747;89;20282;-78
2022/09/23 08:06:59;;;;;;;1999.90;999.90;;;13.20;99.90;;;;;;6658125;89;20279;-78
2022/09/23 08:17:00;;;;;;;1999.90;999.90;;;13.80;99.90;;;;;;6673698;88;20217;-79
2022/09/23 08:27:01;;;;;;;1999.90;999.90;;;14.20;99.90;;;;;;6674369;88;20193;-80
2022/09/23 08:37:01;;;;;;;1999.90;999.90;;;14.40;99.90;;;;;;6658849;89;20212;-80
2022/09/23 08:47:09;;;;;;;1999.90;999.90;;;15.20;99.90;;;;;;6660239;89;20200;-79
2022/09/23 08:57:28;;;;;;;1999.90;999.90;;;15.40;99.90;;;;;;6643196;89;20705;-80
2022/09/23 09:07:34;;;;;;;1999.90;999.90;;;15.40;99.90;;;;;;6658941;88;20668;-79
2022/09/23 09:17:58;;;;;;;1999.90;999.90;;;15.40;99.90;;;;;;6639819;88;20205;-79
2022/09/23 09:27:59;;;;;;;1999.90;999.90;;;15.70;99.90;;;;;;6654035;89;20181;-80
2022/09/23 09:38:00;;;;;;;1999.90;999.90;;;15.40;99.90;;;;;;6640111;88;20220;-80
2022/09/23 09:48:21;;;;;;;1999.90;999.90;;;15.40;99.90;;;;;;6643599;88;20218;-79
2022/09/23 09:58:21;;;;;;;1999.90;999.90;;;16.00;99.90;;;;;;6640331;89;20706;-79
2022/09/23 10:08:28;;;;;;;1999.90;999.90;;;16.40;99.90;;;;;;6657806;88;20226;-80
2022/09/23 10:18:30;;;;;;;1999.90;999.90;;;16.70;99.90;;;;;;6665435;77;20260;-76
2022/09/23 10:28:37;;;;;;;1999.90;999.90;;;17.20;99.90;;;;;;6623977;89;20194;-76
2022/09/23 10:38:37;;;;;;;1999.90;999.90;;;17.80;99.90;;;;;;6632070;88;20242;-76
2022/09/23 10:48:56;;;;;;;1999.90;999.90;;;18.80;99.90;;;;;;6645103;88;20205;-77
2022/09/23 10:59:19;;;;;;;1999.90;999.90;;;19.10;99.90;;;;;;6637451;88;20189;-76
2022/09/23 11:09:49;;;;;;;1999.90;999.90;;;20.20;99.40;;;;;;6636504;89;20316;-76
2022/09/23 11:19:59;;;;;;;1999.90;999.90;;;20.00;99.70;;;;;;6636344;88;20193;-76
2022/09/23 11:30:08;;;;;;;1999.90;999.90;;;20.70;98.70;;;;;;6635685;89;20272;-76
2022/09/23 11:40:30;;;;;;;1999.90;999.90;;;22.00;96.50;;;;;;6659752;88;20202;-77
2022/09/23 11:50:43;;;;;;;1999.90;999.90;;;22.40;95.80;;;;;;6631811;89;20227;-78
2022/09/23 12:00:51;;;;;;;1999.90;999.90;;;22.40;95.00;;;;;;6631637;89;20281;-77
2022/09/23 12:10:56;;;;;;;1999.90;999.90;;;21.60;96.00;;;;;;6636344;88;20381;-76
2022/09/23 12:21:15;;;;;;;1999.90;999.90;;;22.30;93.50;;;;;;6637170;89;20280;-76
2022/09/23 12:31:18;;;;;;;1999.90;999.90;;;23.00;93.70;;;;;;6654889;88;20180;-77
2022/09/23 12:41:22;;;;;;;1999.90;999.90;;;22.30;94.60;;;;;;6633651;89;20214;-76
2022/09/23 12:51:24;;;;;;;1999.90;999.90;;;22.50;93.30;;;;;;6640808;89;20755;-78
2022/09/23 13:01:25;;;;;;;1999.90;999.90;;;21.70;93.00;;;;;;6632168;88;20699;-76
2022/09/23 13:11:28;;;;;;;1999.90;999.90;;;21.70;93.00;;;;;;6630663;89;20690;-76
2022/09/23 13:21:41;;;;;;;1999.90;999.90;;;21.90;92.80;;;;;;6633128;88;20240;-76
2022/09/23 13:31:43;;;;;;;1999.90;999.90;;;21.60;93.00;;;;;;6636324;89;20485;-76
2022/09/23 13:41:44;;;;;;;1999.90;999.90;;;21.40;93.10;;;;;;6634834;88;20355;-77
2022/09/23 13:51:45;;;;;;;1999.90;999.90;;;21.30;93.40;;;;;;6634188;88;20206;-75
2022/09/23 14:01:45;;;;;;;1999.90;999.90;;;21.50;94.50;;;;;;6638883;88;20742;-75
2022/09/23 14:11:48;;;;;;;1999.90;999.90;;;20.70;95.20;;;;;;6628639;88;20327;-75
2022/09/23 14:21:51;;;;;;;1999.90;999.90;;;20.30;95.20;;;;;;6640229;88;20607;-78
2022/09/23 14:32:03;;;;;;;1999.90;999.90;;;20.60;96.30;;;;;;6636931;88;20205;-76
2022/09/23 14:42:06;;;;;;;1999.90;999.90;;;20.20;96.30;;;;;;6631881;88;20324;-76
2022/09/23 14:52:06;;;;;;;1999.90;999.90;;;20.40;97.20;;;;;;6623831;88;20256;-76
2022/09/23 15:02:29;;;;;;;1999.90;999.90;;;20.40;97.20;;;;;;6628995;88;20365;-74
2022/09/23 15:12:30;;;;;;;1999.90;999.90;;;20.10;97.20;;;;;;6630109;88;23070;-77
2022/09/23 15:22:31;;;;;;;1999.90;999.90;;;20.10;98.10;;;;;;6634047;88;20222;-76
2022/09/23 15:32:31;;;;;;;1999.90;999.90;;;20.20;98.20;;;;;;6631103;88;20272;-76
2022/09/23 15:42:32;;;;;;;1999.90;999.90;;;20.00;97.80;;;;;;6632396;88;20769;-75
2022/09/23 15:52:33;;;;;;;1999.90;999.90;;;19.80;98.80;;;;;;6631316;88;20216;-76
2022/09/23 16:02:33;;;;;;;1999.90;999.90;;;19.50;98.90;;;;;;6629497;88;20664;-76
2022/09/23 16:12:35;;;;;;;1999.90;999.90;;;19.10;99.30;;;;;;6631751;88;20833;-77
2022/09/23 16:33:38;;;;;;;1999.90;999.90;;;18.70;99.10;;;;;;6724499;88;20214;-79
2022/09/23 16:43:39;;;;;;;1999.90;999.90;;;18.50;99.20;;;;;;6716443;88;20182;-79
2022/09/23 16:53:41;;;;;;;1999.90;999.90;;;18.30;99.60;;;;;;6712564;88;20324;-80
2022/09/23 17:03:42;;;;;;;1999.90;999.90;;;18.10;99.90;;;;;;6712262;88;20189;-80
2022/09/23 17:13:43;;;;;;;1999.90;999.90;;;18.00;99.90;;;;;;6713193;88;20268;-78
2022/09/23 17:23:43;;;;;;;1999.90;999.90;;;17.70;99.90;;;;;;6701496;88;20274;-78
2022/09/23 17:33:44;;;;;;;1999.90;999.90;;;17.50;99.90;;;;;;6700150;88;20218;-78
2022/09/23 17:43:45;;;;;;;1999.90;999.90;;;17.40;99.90;;;;;;6713222;88;20657;-79
2022/09/23 17:53:47;;;;;;;1999.90;999.90;;;16.90;99.90;;;;;;6706688;88;20193;-79
2022/09/23 18:03:55;;;;;;;1999.90;999.90;;;16.70;99.90;;;;;;6709772;88;20278;-79
2022/09/23 18:13:58;;;;;;;1999.90;999.90;;;16.80;99.90;;;;;;6705465;88;20702;-79
2022/09/23 18:23:59;;;;;;;1999.90;999.90;;;16.20;99.90;;;;;;6697705;88;20194;-79
2022/09/23 18:34:03;;;;;;;1999.90;999.90;;;16.10;99.90;;;;;;6693388;88;20629;-79
2022/09/23 18:44:03;;;;;;;1999.90;999.90;;;15.80;99.90;;;;;;6706476;88;20232;-79
2022/09/23 18:54:06;;;;;;;1999.90;999.90;;;15.70;99.90;;;;;;6708798;88;20325;-78
2022/09/23 19:04:06;;;;;;;1999.90;999.90;;;15.50;99.90;;;;;;6701913;88;20277;-79
2022/09/23 19:14:09;;;;;;;1999.90;999.90;;;15.30;99.90;;;;;;6703591;88;20257;-78
2022/09/23 19:24:14;;;;;;;1999.90;999.90;;;15.20;99.90;;;;;;6707758;88;20741;-78
2022/09/23 19:34:17;;;;;;;1999.90;999.90;;;14.90;99.90;;;;;;6688953;88;20296;-78
2022/09/23 19:44:18;;;;;;;1999.90;999.90;;;14.80;99.90;;;;;;6706301;88;20203;-78
2022/09/23 19:54:19;;;;;;;1999.90;999.90;;;14.40;99.90;;;;;;6707579;88;20201;-78
2022/09/23 20:04:20;;;;;;;1999.90;999.90;;;14.30;99.90;;;;;;6704234;88;20654;-79
2022/09/23 20:14:22;;;;;;;1999.90;999.90;;;14.50;99.90;;;;;;6714049;88;20509;-78
2022/09/23 20:24:22;;;;;;;1999.90;999.90;;;14.40;99.90;;;;;;6723409;88;20211;-79
2022/09/23 20:34:23;;;;;;;1999.90;999.90;;;14.00;99.90;;;;;;6714505;88;20216;-79
2022/09/23 20:44:24;;;;;;;1999.90;999.90;;;14.00;99.90;;;;;;6716989;88;20521;-80
2022/09/23 20:54:24;;;;;;;1999.90;999.90;;;13.70;99.90;;;;;;6718974;88;20177;-79
2022/09/23 21:04:26;;;;;;;1999.90;999.90;;;13.70;99.90;;;;;;6713077;88;20200;-80
2022/09/23 21:14:26;;;;;;;1999.90;999.90;;;13.70;99.90;;;;;;6711650;88;20333;-79
2022/09/23 21:24:27;;;;;;;1999.90;999.90;;;13.80;99.90;;;;;;6707657;88;20782;-79
2022/09/23 21:34:31;;;;;;;1999.90;999.90;;;13.50;99.90;;;;;;6711528;88;20255;-79
2022/09/23 21:44:32;;;;;;;1999.90;999.90;;;13.40;99.90;;;;;;6711715;88;20178;-79
2022/09/23 21:54:33;;;;;;;1999.90;999.90;;;13.10;99.90;;;;;;6709658;88;20714;-79
2022/09/23 22:04:33;;;;;;;1999.90;999.90;;;13.20;99.90;;;;;;6713117;88;20222;-79
2022/09/23 22:14:35;;;;;;;1999.90;999.90;;;13.10;99.90;;;;;;6716081;88;20226;-78
2022/09/23 22:24:36;;;;;;;1999.90;999.90;;;12.80;99.90;;;;;;6707286;88;20579;-78
2022/09/23 22:34:37;;;;;;;1999.90;999.90;;;12.50;99.90;;;;;;6708085;88;20215;-78
2022/09/23 22:44:38;;;;;;;1999.90;999.90;;;12.50;99.90;;;;;;6702310;88;20195;-78
2022/09/23 22:54:38;;;;;;;1999.90;999.90;;;12.10;99.90;;;;;;6707029;88;20320;-78
2022/09/23 23:04:39;;;;;;;1999.90;999.90;;;12.20;99.90;;;;;;6708793;88;20231;-79
2022/09/23 23:14:39;;;;;;;1999.90;999.90;;;12.10;99.90;;;;;;6711582;88;20267;-78
2022/09/23 23:24:40;;;;;;;1999.90;999.90;;;12.20;99.90;;;;;;6711903;88;20247;-78
2022/09/23 23:34:40;;;;;;;1999.90;999.90;;;12.10;99.90;;;;;;6708648;88;20186;-79
2022/09/23 23:44:41;;;;;;;1999.90;999.90;;;11.90;99.90;;;;;;6695344;88;20275;-78
2022/09/23 23:54:42;;;;;;;1999.90;999.90;;;12.00;99.90;;;;;;6710361;88;20685;-78
